TimeCST,TemperatureF,Dew PointF,Humidity,Sea Level PressureIn,VisibilityMPH,Wind Direction,Wind SpeedMPH,Gust SpeedMPH,PrecipitationIn,Events,Conditions,WindDirDegrees,DateUTC
12:15 AM,37.4,37.4,100,29.88,4.0,ESE,15.0,18.4,0.04,Rain,Rain,120,2013-02-10 06:15:00
12:35 AM,37.4,37.4,100,29.88,7.0,SE,17.3,20.7,0.05,,Overcast,130,2013-02-10 06:35:00
12:55 AM,37.4,37.4,100,29.87,7.0,SE,19.6,24.2,0.05,,Overcast,130,2013-02-10 06:55:00
1:15 AM,37.4,37.4,100,29.84,10.0,SE,17.3,24.2,N/A,,Light Drizzle,130,2013-02-10 07:15:00
1:35 AM,39.2,39.2,100,29.83,10.0,SE,19.6,25.3,N/A,,Overcast,130,2013-02-10 07:35:00
1:55 AM,39.2,39.2,100,29.82,10.0,SE,15.0,23.0,N/A,,Overcast,130,2013-02-10 07:55:00
2:15 AM,39.2,39.2,100,29.81,10.0,SE,16.1,-,N/A,,Overcast,130,2013-02-10 08:15:00
2:35 AM,41.0,41.0,100,29.81,7.0,SE,12.7,20.7,N/A,Rain,Light Rain,130,2013-02-10 08:35:00
2:55 AM,41.0,41.0,100,29.79,10.0,SE,13.8,24.2,N/A,,Overcast,140,2013-02-10 08:55:00
3:15 AM,41.0,41.0,100,29.78,7.0,SE,11.5,-,N/A,,Light Drizzle,140,2013-02-10 09:15:00
3:55 AM,42.8,42.8,100,29.76,10.0,SE,16.1,-,N/A,,Overcast,140,2013-02-10 09:55:00
4:15 AM,42.8,42.8,100,29.74,7.0,SE,16.1,23.0,N/A,Rain,Light Rain,130,2013-02-10 10:15:00
4:35 AM,42.8,42.8,100,29.72,7.0,SE,17.3,27.6,N/A,,Overcast,130,2013-02-10 10:35:00
4:55 AM,42.8,42.8,100,29.71,7.0,SE,20.7,29.9,N/A,,Overcast,140,2013-02-10 10:55:00
5:15 AM,42.8,42.8,100,29.71,7.0,SE,19.6,26.5,N/A,,Overcast,140,2013-02-10 11:15:00
5:35 AM,42.8,42.8,100,29.70,4.0,SE,19.6,25.3,0.02,Rain-Thunderstorm,Rain,140,2013-02-10 11:35:00
5:55 AM,42.8,42.8,100,29.68,7.0,SE,16.1,-,0.03,Thunderstorm,Overcast,140,2013-02-10 11:55:00
6:15 AM,44.6,44.6,100,29.67,7.0,SE,18.4,24.2,N/A,,Light Drizzle,140,2013-02-10 12:15:00
6:35 AM,44.6,44.6,100,29.65,10.0,SE,17.3,24.2,N/A,Rain,Light Rain,130,2013-02-10 12:35:00
6:55 AM,44.6,44.6,100,29.66,10.0,SE,21.9,26.5,N/A,,Overcast,140,2013-02-10 12:55:00
7:15 AM,46.4,46.4,100,29.65,10.0,SE,17.3,-,N/A,Rain,Light Rain,140,2013-02-10 13:15:00
7:35 AM,46.4,46.4,100,29.63,7.0,SE,16.1,23.0,0.03,Rain,Light Rain,130,2013-02-10 13:35:00
7:55 AM,46.4,46.4,100,29.64,10.0,SE,17.3,23.0,0.03,,Overcast,140,2013-02-10 13:55:00
8:15 AM,46.4,46.4,100,29.63,10.0,SE,18.4,23.0,N/A,,Overcast,140,2013-02-10 14:15:00
8:35 AM,48.2,48.2,100,29.63,10.0,SSE,17.3,27.6,N/A,,Mostly Cloudy,150,2013-02-10 14:35:00
8:55 AM,48.2,48.2,100,29.62,10.0,SE,13.8,21.9,N/A,,Overcast,140,2013-02-10 14:55:00
9:15 AM,50.0,50.0,100,29.62,10.0,SSE,18.4,25.3,N/A,,Overcast,160,2013-02-10 15:15:00
9:35 AM,51.8,51.8,100,29.60,10.0,SSE,13.8,24.2,N/A,,Overcast,150,2013-02-10 15:35:00
10:15 AM,51.8,51.8,100,29.61,10.0,SSE,18.4,25.3,N/A,,Overcast,160,2013-02-10 16:15:00
10:35 AM,51.8,51.8,100,29.61,10.0,South,16.1,28.8,N/A,,Overcast,170,2013-02-10 16:35:00
10:55 AM,53.6,53.6,100,29.61,10.0,South,12.7,24.2,N/A,,Overcast,170,2013-02-10 16:55:00
11:15 AM,53.6,53.6,100,29.61,10.0,South,11.5,18.4,N/A,,Overcast,180,2013-02-10 17:15:00
11:35 AM,55.4,53.6,94,29.61,10.0,South,13.8,21.9,N/A,,Overcast,190,2013-02-10 17:35:00
11:55 AM,55.4,51.8,88,29.60,10.0,SSW,17.3,25.3,N/A,,Overcast,200,2013-02-10 17:55:00
12:15 PM,55.4,48.2,77,29.60,10.0,SSW,18.4,27.6,N/A,,Mostly Cloudy,200,2013-02-10 18:15:00
12:35 PM,59.0,44.6,59,29.58,10.0,SSW,17.3,26.5,N/A,,Clear,200,2013-02-10 18:35:00
12:55 PM,59.0,39.2,48,29.58,10.0,SSW,24.2,35.7,N/A,,Clear,200,2013-02-10 18:55:00
1:15 PM,59.0,35.6,42,29.58,10.0,SSW,21.9,34.5,N/A,,Scattered Clouds,200,2013-02-10 19:15:00
1:55 PM,59.0,30.2,34,29.58,10.0,SSW,24.2,38.0,N/A,,Clear,210,2013-02-10 19:55:00
2:15 PM,59.0,28.4,31,29.58,10.0,SW,24.2,35.7,N/A,,Clear,220,2013-02-10 20:15:00
2:35 PM,59.0,28.4,31,29.59,10.0,SW,26.5,40.3,N/A,,Clear,220,2013-02-10 20:35:00
2:55 PM,59.0,24.8,27,29.59,10.0,SW,25.3,39.1,N/A,,Clear,220,2013-02-10 20:55:00
3:15 PM,59.0,23.0,25,29.60,10.0,SW,28.8,38.0,N/A,,Clear,230,2013-02-10 21:15:00
3:35 PM,59.0,24.8,27,29.61,10.0,SW,25.3,38.0,N/A,,Clear,220,2013-02-10 21:35:00
3:55 PM,59.0,26.6,29,29.60,10.0,SSW,26.5,35.7,N/A,,Clear,210,2013-02-10 21:55:00
4:15 PM,57.2,23.0,27,29.62,10.0,SSW,24.2,35.7,N/A,,Clear,210,2013-02-10 22:15:00
4:35 PM,57.2,24.8,29,29.63,10.0,SSW,21.9,33.4,N/A,,Clear,210,2013-02-10 22:35:00
4:55 PM,55.4,26.6,33,29.65,10.0,SW,23.0,28.8,N/A,,Clear,220,2013-02-10 22:55:00
5:15 PM,55.4,26.6,33,29.66,10.0,SW,19.6,33.4,N/A,,Clear,220,2013-02-10 23:15:00
5:35 PM,53.6,26.6,35,29.67,10.0,SW,16.1,32.2,N/A,,Clear,220,2013-02-10 23:35:00
5:55 PM,53.6,28.4,38,29.69,10.0,SW,19.6,27.6,N/A,,Clear,220,2013-02-10 23:55:00
6:15 PM,53.6,26.6,35,29.70,10.0,SW,19.6,34.5,N/A,,Clear,230,2013-02-11 00:15:00
6:35 PM,51.8,26.6,38,29.72,10.0,SW,15.0,27.6,N/A,,Clear,230,2013-02-11 00:35:00
6:55 PM,51.8,28.4,41,29.74,10.0,SW,19.6,26.5,N/A,,Clear,230,2013-02-11 00:55:00
7:15 PM,50.0,28.4,43,29.74,10.0,SW,19.6,27.6,N/A,,Clear,230,2013-02-11 01:15:00
7:35 PM,50.0,26.6,40,29.74,10.0,SW,15.0,-,N/A,,Clear,220,2013-02-11 01:35:00
7:55 PM,50.0,28.4,43,29.76,10.0,SW,16.1,23.0,N/A,,Clear,230,2013-02-11 01:55:00
8:15 PM,50.0,28.4,43,29.77,10.0,SW,18.4,34.5,N/A,,Clear,220,2013-02-11 02:15:00
8:35 PM,48.2,28.4,46,29.78,10.0,SW,18.4,28.8,N/A,,Clear,230,2013-02-11 02:35:00
8:55 PM,46.4,28.4,50,29.80,10.0,WSW,19.6,26.5,N/A,,Clear,240,2013-02-11 02:55:00
9:15 PM,44.6,28.4,53,29.83,10.0,WSW,15.0,31.1,N/A,,Clear,250,2013-02-11 03:15:00
9:35 PM,42.8,28.4,57,29.84,10.0,WSW,20.7,31.1,N/A,,Scattered Clouds,240,2013-02-11 03:35:00
9:55 PM,41.0,26.6,57,29.85,10.0,WSW,19.6,31.1,N/A,,Clear,240,2013-02-11 03:55:00
10:15 PM,41.0,26.6,57,29.87,10.0,SW,21.9,28.8,N/A,,Clear,230,2013-02-11 04:15:00
10:35 PM,41.0,26.6,57,29.87,10.0,WSW,18.4,26.5,N/A,,Clear,240,2013-02-11 04:35:00
10:55 PM,41.0,26.6,57,29.89,10.0,WSW,18.4,29.9,N/A,,Clear,240,2013-02-11 04:55:00
11:15 PM,41.0,26.6,57,29.90,10.0,WSW,18.4,29.9,N/A,,Clear,240,2013-02-11 05:15:00
11:35 PM,39.2,26.6,61,29.92,10.0,WSW,24.2,34.5,N/A,,Clear,250,2013-02-11 05:35:00
11:55 PM,37.4,24.8,60,29.93,10.0,West,17.3,35.7,N/A,,Scattered Clouds,260,2013-02-11 05:55:00